createdAt,value
2019-04-04T00:00:07.794Z,63.80
2019-04-04T00:01:07.241Z,63.80
2019-04-04T00:02:06.726Z,63.90
2019-04-04T00:03:10.821Z,63.80
2019-04-04T00:04:07.274Z,63.80
2019-04-04T00:05:07.923Z,63.80
2019-04-04T00:06:07.253Z,63.80
2019-04-04T00:07:06.904Z,63.80
2019-04-04T00:08:07.234Z,63.70
2019-04-04T00:09:06.938Z,64.00
2019-04-04T00:10:04.996Z,64.10
2019-04-04T00:11:06.951Z,64.00
2019-04-04T00:12:10.186Z,64.00
2019-04-04T00:13:05.098Z,64.00
2019-04-04T00:14:07.268Z,64.20
2019-04-04T00:15:07.541Z,64.10
2019-04-04T00:16:06.954Z,64.00
2019-04-04T00:18:11.980Z,64.00
2019-04-04T00:19:07.271Z,63.80
2019-04-04T00:20:06.933Z,63.90
2019-04-04T00:21:07.647Z,64.60
2019-04-04T00:22:07.053Z,64.60
2019-04-04T00:23:07.510Z,64.60
2019-04-04T00:24:09.689Z,64.80
2019-04-04T00:25:10.592Z,64.40
2019-04-04T00:26:08.846Z,64.30
2019-04-04T00:27:13.851Z,64.10
2019-04-04T00:28:07.296Z,64.10
2019-04-04T00:29:06.748Z,64.10
2019-04-04T00:30:10.795Z,64.10
2019-04-04T00:31:07.101Z,64.10
2019-04-04T00:32:05.118Z,64.00
2019-04-04T00:33:07.279Z,64.00
2019-04-04T00:34:06.799Z,64.20
2019-04-04T00:35:07.267Z,64.30
2019-04-04T00:36:15.569Z,64.30
2019-04-04T00:37:07.036Z,64.20
2019-04-04T00:38:07.634Z,64.20
2019-04-04T00:39:09.979Z,64.20
2019-04-04T00:40:12.099Z,64.30
2019-04-04T00:41:05.065Z,64.30
2019-04-04T00:42:06.764Z,64.30
2019-04-04T00:43:07.261Z,64.30
2019-04-04T00:44:05.111Z,64.30
2019-04-04T00:45:07.293Z,64.30
2019-04-04T00:46:06.817Z,64.40
2019-04-04T00:47:07.290Z,51.60
2019-04-04T00:48:06.817Z,64.40
2019-04-04T00:49:07.316Z,64.50
2019-04-04T00:50:07.117Z,64.60
2019-04-04T00:51:08.590Z,64.40
2019-04-04T00:52:10.917Z,64.50
2019-04-04T00:53:05.062Z,64.50
2019-04-04T00:54:05.128Z,64.60
2019-04-04T00:55:07.250Z,64.40
2019-04-04T00:56:06.726Z,64.30
2019-04-04T00:57:07.293Z,64.40
2019-04-04T00:58:06.814Z,64.30
2019-04-04T00:59:07.292Z,64.30
2019-04-04T01:00:07.010Z,64.30
2019-04-04T01:01:05.059Z,64.30
2019-04-04T01:02:05.125Z,64.20
2019-04-04T01:03:11.086Z,64.10
2019-04-04T01:04:07.683Z,64.50
2019-04-04T01:05:07.132Z,64.50
2019-04-04T01:06:05.144Z,63.90
2019-04-04T01:07:10.075Z,63.90
2019-04-04T01:08:07.953Z,64.20
2019-04-04T01:09:04.926Z,64.10
2019-04-04T01:10:07.323Z,64.10
2019-04-04T01:11:06.829Z,64.50
2019-04-04T01:12:07.311Z,64.40
2019-04-04T01:13:06.817Z,64.40
2019-04-04T01:14:10.943Z,64.90
2019-04-04T01:15:07.271Z,64.90
2019-04-04T01:16:06.799Z,64.50
2019-04-04T01:17:07.295Z,64.80
2019-04-04T01:18:07.010Z,64.70
2019-04-04T01:19:10.409Z,65.20
2019-04-04T01:20:10.393Z,65.20
2019-04-04T01:21:06.823Z,65.00
2019-04-04T01:22:07.346Z,65.30
2019-04-04T01:23:10.386Z,65.50
2019-04-04T01:24:06.833Z,65.50
2019-04-04T01:25:07.304Z,65.40
2019-04-04T01:26:06.840Z,64.90
2019-04-04T01:27:10.877Z,64.80
2019-04-04T01:28:09.058Z,64.80
2019-04-04T01:29:10.022Z,64.70
2019-04-04T01:30:07.802Z,64.50
2019-04-04T01:31:07.206Z,64.50
2019-04-04T01:32:05.126Z,64.60
2019-04-04T01:33:04.998Z,64.60
2019-04-04T01:34:05.074Z,64.70
2019-04-04T01:35:05.156Z,65.20
2019-04-04T01:36:07.309Z,65.20
2019-04-04T01:37:07.964Z,65.60
2019-04-04T01:38:07.321Z,65.60
2019-04-04T01:39:07.023Z,65.60
2019-04-04T01:40:07.629Z,65.70
2019-04-04T01:41:07.112Z,65.70
2019-04-04T01:42:07.879Z,65.80
2019-04-04T01:43:05.155Z,65.80
2019-04-04T01:44:07.040Z,65.80
2019-04-04T01:45:05.077Z,65.90
2019-04-04T01:46:07.685Z,65.60
2019-04-04T01:47:08.262Z,65.60
2019-04-04T01:48:05.188Z,65.60
2019-04-04T01:49:07.375Z,65.40
2019-04-04T01:50:06.871Z,65.40
2019-04-04T01:51:08.424Z,65.40
2019-04-04T01:52:06.990Z,65.40
2019-04-04T01:53:07.454Z,65.40
2019-04-04T01:54:07.982Z,65.50
2019-04-04T01:55:11.029Z,65.50
2019-04-04T01:56:07.231Z,65.40
2019-04-04T01:57:08.797Z,65.40
2019-04-04T01:58:10.719Z,65.80
2019-04-04T01:59:07.205Z,65.80
2019-04-04T02:00:07.722Z,65.40
2019-04-04T02:01:07.224Z,65.40
2019-04-04T02:02:05.253Z,65.50
2019-04-04T02:03:10.806Z,65.90
2019-04-04T02:04:07.241Z,65.90
2019-04-04T02:05:06.774Z,65.80
2019-04-04T02:06:08.425Z,65.80
2019-04-04T02:07:06.878Z,65.70
2019-04-04T02:08:07.367Z,65.60
2019-04-04T02:09:06.886Z,65.70
2019-04-04T02:10:07.347Z,65.60
2019-04-04T02:11:07.083Z,65.50
2019-04-04T02:12:08.583Z,65.50
2019-04-04T02:13:10.685Z,65.50
2019-04-04T02:14:12.762Z,65.60
2019-04-04T02:15:07.246Z,65.60
2019-04-04T02:16:05.270Z,65.60
2019-04-04T02:17:08.372Z,65.40
2019-04-04T02:18:06.848Z,65.50
2019-04-04T02:19:07.355Z,65.70
2019-04-04T02:20:07.876Z,65.80
2019-04-04T02:21:07.372Z,65.90
2019-04-04T02:22:07.899Z,65.50
2019-04-04T02:23:07.417Z,65.50
2019-04-04T02:24:07.120Z,65.90
2019-04-04T02:25:05.112Z,65.90
2019-04-04T02:26:07.114Z,65.50
2019-04-04T02:27:07.619Z,65.60
2019-04-04T02:28:09.598Z,65.60
2019-04-04T02:29:07.121Z,65.70
2019-04-04T02:30:07.642Z,65.50
2019-04-04T02:31:07.205Z,65.60
2019-04-04T02:32:07.701Z,65.90
2019-04-04T02:33:07.202Z,65.90
2019-04-04T02:34:07.093Z,65.90
2019-04-04T02:35:05.221Z,66.10
2019-04-04T02:36:06.884Z,65.60
2019-04-04T02:37:07.425Z,65.40
2019-04-04T02:38:08.023Z,65.50
2019-04-04T02:39:04.931Z,65.50
2019-04-04T02:40:09.949Z,65.50
2019-04-04T02:41:07.640Z,65.50
2019-04-04T02:42:07.087Z,65.50
2019-04-04T02:43:05.019Z,65.50
2019-04-04T02:44:07.138Z,65.70
2019-04-04T02:45:07.169Z,65.70
2019-04-04T02:46:12.604Z,65.60
2019-04-04T02:47:07.066Z,65.60
2019-04-04T02:48:06.901Z,65.60
2019-04-04T02:49:07.420Z,65.70
2019-04-04T02:50:10.444Z,65.90
2019-04-04T02:51:08.458Z,65.90
2019-04-04T02:52:07.079Z,66.00
2019-04-04T02:53:07.606Z,66.10
2019-04-04T02:54:08.031Z,66.10
2019-04-04T02:55:07.522Z,66.10
2019-04-04T02:56:10.495Z,66.40
2019-04-04T02:57:09.516Z,66.40
2019-04-04T02:58:07.112Z,66.10
2019-04-04T02:59:05.245Z,66.10
2019-04-04T03:00:06.852Z,66.10
2019-04-04T03:01:10.895Z,66.40
2019-04-04T03:02:07.264Z,66.40
2019-04-04T03:03:09.388Z,66.60
2019-04-04T03:04:05.050Z,66.60
2019-04-04T03:05:07.750Z,66.70
2019-04-04T03:06:07.276Z,66.70
2019-04-04T03:07:10.351Z,66.70
2019-04-04T03:08:06.902Z,66.80
2019-04-04T03:09:10.697Z,67.00
2019-04-04T03:10:07.261Z,67.00
2019-04-04T03:11:05.268Z,67.00
2019-04-04T03:12:07.589Z,67.00
2019-04-04T03:13:08.032Z,67.20
2019-04-04T03:14:05.178Z,67.20
2019-04-04T03:15:10.164Z,67.20
2019-04-04T03:16:05.272Z,67.20
2019-04-04T03:17:10.859Z,67.20
2019-04-04T03:18:07.336Z,67.20
2019-04-04T03:19:09.708Z,67.20
2019-04-04T03:20:05.092Z,67.20
2019-04-04T03:21:05.273Z,67.20
2019-04-04T03:22:10.080Z,67.20
2019-04-04T03:23:07.592Z,67.20
2019-04-04T03:24:07.789Z,67.20
2019-04-04T03:25:07.475Z,67.00
2019-04-04T03:26:10.601Z,67.00
2019-04-04T03:27:07.224Z,67.00
2019-04-04T03:28:05.252Z,67.40
2019-04-04T03:29:10.160Z,67.40
2019-04-04T03:30:16.855Z,67.40
2019-04-04T03:31:07.644Z,67.20
2019-04-04T03:32:16.480Z,67.50
2019-04-04T03:33:07.306Z,67.50
2019-04-04T03:34:12.679Z,67.60
2019-04-04T03:35:05.012Z,67.60
2019-04-04T03:36:07.731Z,67.30
2019-04-04T03:37:11.847Z,67.30
2019-04-04T03:38:05.289Z,67.20
2019-04-04T03:39:07.455Z,67.60
2019-04-04T03:40:06.916Z,67.60
2019-04-04T03:41:07.467Z,67.50
2019-04-04T03:42:08.611Z,67.40
2019-04-04T03:43:07.269Z,67.40
2019-04-04T03:44:05.252Z,67.50
2019-04-04T03:45:04.964Z,67.40
2019-04-04T03:46:04.999Z,67.50
2019-04-04T03:47:05.088Z,67.90
2019-04-04T03:48:05.269Z,68.30
2019-04-04T03:49:07.901Z,68.50
2019-04-04T03:50:08.413Z,68.50
2019-04-04T03:51:07.150Z,68.50
2019-04-04T03:52:05.292Z,68.60
2019-04-04T03:53:06.985Z,68.80
2019-04-04T03:54:04.965Z,68.80
2019-04-04T03:55:05.041Z,69.00
2019-04-04T03:56:05.254Z,69.10
2019-04-04T03:57:10.880Z,69.10
2019-04-04T03:58:05.224Z,69.10
2019-04-04T03:59:07.541Z,69.00
2019-04-04T04:00:08.108Z,69.00
2019-04-04T04:01:05.284Z,69.00
2019-04-04T04:02:06.948Z,68.90
2019-04-04T04:03:04.958Z,69.00
2019-04-04T04:04:05.014Z,69.00
2019-04-04T04:05:04.997Z,69.00
2019-04-04T04:06:09.841Z,69.00
2019-04-04T04:07:07.733Z,69.00
2019-04-04T04:08:08.310Z,69.00
2019-04-04T04:09:05.168Z,69.10
2019-04-04T04:10:05.331Z,69.00
2019-04-04T04:11:07.337Z,69.40
2019-04-04T04:12:11.370Z,69.60
2019-04-04T04:13:06.976Z,69.60
2019-04-04T04:14:07.507Z,69.50
2019-04-04T04:15:08.014Z,69.50
2019-04-04T04:16:10.008Z,69.50
2019-04-04T04:17:04.975Z,69.50
2019-04-04T04:18:05.214Z,69.50
2019-04-04T04:19:07.951Z,69.40
2019-04-04T04:20:07.341Z,69.50
2019-04-04T04:21:11.182Z,69.60
2019-04-04T04:22:06.950Z,69.40
2019-04-04T04:23:04.978Z,69.50
2019-04-04T04:24:05.207Z,69.60
2019-04-04T04:25:10.950Z,69.80
2019-04-04T04:26:10.169Z,69.80
2019-04-04T04:27:05.387Z,70.00
2019-04-04T04:28:08.448Z,70.70
2019-04-04T04:29:05.311Z,70.40
2019-04-04T04:30:07.795Z,70.90
2019-04-04T04:31:07.323Z,70.90
2019-04-04T04:32:10.401Z,71.50
2019-04-04T04:33:05.349Z,71.50
2019-04-04T04:34:07.518Z,71.70
2019-04-04T04:35:09.246Z,71.80
2019-04-04T04:36:14.831Z,72.40
2019-04-04T04:37:05.277Z,72.60
2019-04-04T04:38:07.545Z,73.20
2019-04-04T04:39:07.013Z,73.30
2019-04-04T04:40:04.990Z,73.50
2019-04-04T04:41:05.065Z,73.80
2019-04-04T04:42:10.178Z,74.50
2019-04-04T04:43:05.236Z,74.60
2019-04-04T04:44:07.234Z,74.90
2019-04-04T04:45:12.418Z,75.80
2019-04-04T04:46:06.963Z,75.80
2019-04-04T04:47:09.990Z,76.10
2019-04-04T04:48:07.356Z,76.10
2019-04-04T04:49:06.978Z,76.10
2019-04-04T04:50:10.160Z,76.00
2019-04-04T04:51:05.198Z,76.20
2019-04-04T04:52:07.801Z,76.50
2019-04-04T04:53:07.370Z,76.30
2019-04-04T04:54:06.929Z,76.30
2019-04-04T04:55:07.567Z,76.40
2019-04-04T04:56:06.981Z,76.40
2019-04-04T04:57:06.990Z,76.40
2019-04-04T04:58:11.141Z,76.30
2019-04-04T04:59:14.091Z,76.40
2019-04-04T05:00:04.978Z,76.40
2019-04-04T05:01:05.041Z,76.30
2019-04-04T05:02:05.112Z,76.20
2019-04-04T05:03:05.146Z,76.30
2019-04-04T05:04:07.255Z,76.00
2019-04-04T05:05:10.249Z,75.80
2019-04-04T05:06:05.147Z,75.80
2019-04-04T05:07:08.102Z,75.80
2019-04-04T05:08:05.111Z,76.20
2019-04-04T05:09:07.709Z,75.70
2019-04-04T05:10:07.181Z,75.80
2019-04-04T05:11:07.675Z,75.60
2019-04-04T05:12:07.033Z,75.60
2019-04-04T05:13:10.091Z,75.50
2019-04-04T05:14:07.561Z,75.50
2019-04-04T05:15:07.014Z,75.50
2019-04-04T05:16:09.095Z,75.80
2019-04-04T05:17:05.246Z,75.80
2019-04-04T05:18:04.933Z,75.90
2019-04-04T05:19:10.078Z,75.40
2019-04-04T05:20:05.071Z,75.40
2019-04-04T05:21:07.697Z,75.60
2019-04-04T05:22:08.993Z,75.70
2019-04-04T05:23:16.557Z,76.00
2019-04-04T05:24:10.598Z,76.20
2019-04-04T05:25:09.121Z,76.20
2019-04-04T05:26:05.160Z,76.50
2019-04-04T05:27:07.261Z,76.50
2019-04-04T05:28:10.344Z,76.40
2019-04-04T05:29:07.335Z,76.20
2019-04-04T05:30:08.763Z,75.80
2019-04-04T05:31:07.237Z,75.80
2019-04-04T05:32:05.209Z,75.70
2019-04-04T05:33:07.835Z,76.00
2019-04-04T05:34:10.789Z,76.30
2019-04-04T05:35:08.207Z,76.30
2019-04-04T05:36:07.651Z,76.50
2019-04-04T05:37:08.151Z,76.50
2019-04-04T05:38:08.224Z,76.80
2019-04-04T05:39:06.964Z,77.00
2019-04-04T05:40:07.671Z,77.50
2019-04-04T05:41:08.161Z,77.50
2019-04-04T05:42:05.102Z,77.50
2019-04-04T05:43:05.337Z,77.60
2019-04-04T05:44:10.494Z,77.40
2019-04-04T05:45:06.953Z,77.40
2019-04-04T05:46:10.085Z,77.50
2019-04-04T05:47:10.123Z,77.50
2019-04-04T05:48:05.071Z,77.50
2019-04-04T05:49:08.520Z,77.50
2019-04-04T05:50:07.270Z,77.80
2019-04-04T05:51:04.959Z,77.70
2019-04-04T05:52:04.957Z,77.70
2019-04-04T05:53:05.305Z,77.70
2019-04-04T05:54:08.279Z,77.80
2019-04-04T05:55:05.330Z,77.80
2019-04-04T05:56:07.290Z,78.00
2019-04-04T05:57:05.388Z,78.00
2019-04-04T05:58:08.032Z,77.90
2019-04-04T05:59:05.096Z,77.90
2019-04-04T06:00:05.215Z,77.80
2019-04-04T06:01:07.901Z,77.90
2019-04-04T06:02:09.222Z,77.90
2019-04-04T06:03:05.158Z,77.90
2019-04-04T06:04:05.398Z,77.80
2019-04-04T06:05:10.640Z,77.60
2019-04-04T06:06:11.122Z,77.70
2019-04-04T06:07:05.332Z,77.60
2019-04-04T06:08:08.780Z,77.70
2019-04-04T06:09:07.434Z,77.70
2019-04-04T06:10:12.472Z,77.90
2019-04-04T06:11:05.433Z,77.90
2019-04-04T06:12:08.457Z,77.90
2019-04-04T06:13:05.452Z,77.90
2019-04-04T06:14:04.930Z,77.80
2019-04-04T06:15:04.950Z,77.80
2019-04-04T06:16:07.566Z,77.50
2019-04-04T06:17:07.867Z,77.40
2019-04-04T06:18:11.996Z,77.40
2019-04-04T06:19:04.957Z,77.30
2019-04-04T06:20:15.597Z,77.50
2019-04-04T06:21:10.588Z,77.40
2019-04-04T06:22:05.444Z,77.40
2019-04-04T06:23:07.557Z,77.20
2019-04-04T06:24:05.443Z,77.20
2019-04-04T06:25:05.065Z,77.10
2019-04-04T06:26:08.013Z,77.00
2019-04-04T06:27:05.191Z,77.10
2019-04-04T06:28:05.322Z,77.10
2019-04-04T06:29:07.834Z,76.90
2019-04-04T06:30:07.387Z,77.10
2019-04-04T06:31:07.106Z,77.10
2019-04-04T06:32:05.161Z,77.10
2019-04-04T06:33:05.473Z,77.10
2019-04-04T06:34:08.310Z,77.30
2019-04-04T06:35:05.123Z,77.40
2019-04-04T06:36:07.785Z,77.40
2019-04-04T06:37:08.262Z,77.20
2019-04-04T06:38:05.290Z,77.10
2019-04-04T06:39:07.019Z,77.20
2019-04-04T06:40:05.018Z,77.10
2019-04-04T06:41:05.060Z,77.20
2019-04-04T06:42:05.137Z,77.20
2019-04-04T06:43:11.819Z,77.40
2019-04-04T06:44:05.210Z,77.70
2019-04-04T06:45:05.430Z,77.60
2019-04-04T06:46:07.795Z,77.50
2019-04-04T06:47:07.340Z,77.50
2019-04-04T06:48:05.373Z,77.60
2019-04-04T06:49:05.447Z,77.70
2019-04-04T06:50:08.673Z,77.70
2019-04-04T06:51:07.111Z,77.80
2019-04-04T06:52:05.110Z,77.90
2019-04-04T06:53:07.679Z,77.60
2019-04-04T06:54:07.288Z,77.60
2019-04-04T06:55:10.450Z,77.70
2019-04-04T06:56:05.428Z,77.60
2019-04-04T06:57:07.147Z,77.60
2019-04-04T06:58:09.566Z,77.60
2019-04-04T06:59:07.127Z,77.50
2019-04-04T07:00:05.206Z,77.50
2019-04-04T07:01:05.124Z,77.60
2019-04-04T07:02:07.127Z,77.50
2019-04-04T07:03:10.331Z,77.30
2019-04-04T07:04:05.416Z,77.30
2019-04-04T07:05:10.222Z,77.00
2019-04-04T07:06:10.897Z,76.90
2019-04-04T07:07:07.409Z,76.90
2019-04-04T07:08:07.932Z,77.00
2019-04-04T07:09:07.304Z,77.00
2019-04-04T07:10:07.861Z,76.50
2019-04-04T07:11:21.646Z,76.50
2019-04-04T07:12:20.213Z,76.40
2019-04-04T07:13:26.550Z,76.30
2019-04-04T07:14:07.602Z,76.20
2019-04-04T07:15:07.147Z,76.20
2019-04-04T07:16:08.357Z,76.20
2019-04-04T07:17:09.740Z,76.20
2019-04-04T07:18:07.352Z,76.20
2019-04-04T07:19:08.408Z,76.20
2019-04-04T07:20:07.956Z,76.30
2019-04-04T07:21:08.507Z,76.10
2019-04-04T07:22:05.435Z,76.10
2019-04-04T07:23:07.758Z,76.00
2019-04-04T07:24:08.228Z,75.90
2019-04-04T07:25:07.315Z,75.90
2019-04-04T07:26:05.394Z,75.80
2019-04-04T07:27:08.055Z,76.10
2019-04-04T07:28:04.961Z,76.10
2019-04-04T07:29:05.131Z,76.90
2019-04-04T07:30:05.309Z,76.90
2019-04-04T07:31:07.885Z,77.40
2019-04-04T07:32:10.161Z,77.40
2019-04-04T07:33:05.529Z,77.60
2019-04-04T07:34:04.954Z,77.60
2019-04-04T07:35:04.979Z,77.70
2019-04-04T07:36:07.602Z,78.00
2019-04-04T07:37:07.051Z,78.00
2019-04-04T07:38:05.134Z,78.00
2019-04-04T07:39:07.761Z,78.00
2019-04-04T07:40:07.179Z,77.90
2019-04-04T07:41:09.036Z,77.90
2019-04-04T07:42:05.082Z,78.00
2019-04-04T07:43:05.203Z,78.10
2019-04-04T07:44:07.151Z,78.10
2019-04-04T07:45:05.119Z,78.50
2019-04-04T07:46:17.098Z,78.50
2019-04-04T07:47:05.273Z,78.20
2019-04-04T07:48:05.400Z,77.60
2019-04-04T07:49:05.484Z,78.10
2019-04-04T07:50:07.673Z,77.90
2019-04-04T07:51:07.114Z,77.90
2019-04-04T07:52:05.060Z,77.90
2019-04-04T07:53:07.170Z,77.70
2019-04-04T07:54:07.962Z,78.10
2019-04-04T07:55:10.989Z,77.90
2019-04-04T07:56:05.022Z,77.90
2019-04-04T07:57:10.273Z,78.00
2019-04-04T07:58:05.306Z,78.00
2019-04-04T07:59:05.435Z,78.10
2019-04-04T08:00:07.187Z,78.40
2019-04-04T08:01:07.720Z,78.80
2019-04-04T08:02:07.346Z,78.80
2019-04-04T08:03:05.376Z,78.90
2019-04-04T08:04:07.413Z,78.70
2019-04-04T08:05:07.952Z,78.60
2019-04-04T08:06:10.897Z,78.50
2019-04-04T08:07:08.471Z,78.40
2019-04-04T08:08:05.375Z,78.40
2019-04-04T08:09:05.164Z,78.40
2019-04-04T08:10:05.229Z,78.50
2019-04-04T08:11:05.268Z,78.40
2019-04-04T08:12:07.845Z,78.30
2019-04-04T08:13:07.335Z,78.30
2019-04-04T08:14:05.347Z,78.60
2019-04-04T08:15:05.350Z,78.70
2019-04-04T08:16:05.481Z,78.60
2019-04-04T08:17:07.236Z,78.80
2019-04-04T08:18:05.209Z,79.00
2019-04-04T08:19:07.881Z,78.90
2019-04-04T08:20:07.206Z,78.80
2019-04-04T08:21:07.381Z,78.90
2019-04-04T08:22:08.164Z,78.70
2019-04-04T08:23:05.118Z,78.70
2019-04-04T08:24:05.296Z,78.60
2019-04-04T08:25:05.427Z,78.60
2019-04-04T08:26:05.484Z,78.60
2019-04-04T08:27:07.100Z,78.60
2019-04-04T08:28:05.051Z,78.40
2019-04-04T08:29:05.229Z,78.30
2019-04-04T08:30:08.008Z,78.70
2019-04-04T08:31:05.089Z,78.70
2019-04-04T08:32:07.866Z,78.50
2019-04-04T08:33:07.211Z,78.60
2019-04-04T08:34:05.230Z,78.60
2019-04-04T08:35:05.285Z,78.50
2019-04-04T08:36:07.398Z,78.10
2019-04-04T08:37:05.431Z,77.70
2019-04-04T08:38:05.478Z,51.60
2019-04-04T08:39:08.143Z,77.50
2019-04-04T08:40:05.061Z,77.40
2019-04-04T08:41:05.077Z,77.40
2019-04-04T08:42:05.200Z,77.50
2019-04-04T08:43:05.326Z,77.60
2019-04-04T08:44:10.976Z,77.70
2019-04-04T08:45:04.902Z,77.70
2019-04-04T08:46:07.668Z,77.50
2019-04-04T08:47:10.740Z,77.00
2019-04-04T08:48:08.321Z,76.90
2019-04-04T08:49:07.785Z,76.70
2019-04-04T08:50:07.141Z,76.70
2019-04-04T08:51:05.284Z,76.60
2019-04-04T08:52:18.117Z,76.40
2019-04-04T08:53:05.497Z,76.20
2019-04-04T08:54:05.252Z,76.10
2019-04-04T08:55:05.537Z,76.00
2019-04-04T08:56:07.178Z,75.80
2019-04-04T08:57:05.159Z,75.50
2019-04-04T08:58:05.331Z,75.00
2019-04-04T08:59:05.514Z,74.60
2019-04-04T09:00:07.808Z,74.60
2019-04-04T09:01:10.866Z,73.80
2019-04-04T09:02:10.967Z,73.60
2019-04-04T09:03:04.956Z,73.50
2019-04-04T09:04:05.393Z,72.80
2019-04-04T09:05:12.872Z,73.20
2019-04-04T09:06:10.972Z,73.30
2019-04-04T09:07:10.886Z,73.30
2019-04-04T09:08:07.439Z,73.30
2019-04-04T09:09:05.529Z,73.20
2019-04-04T09:10:10.734Z,73.10
2019-04-04T09:11:07.216Z,73.10
2019-04-04T09:12:05.250Z,73.00
2019-04-04T09:13:05.279Z,73.00
2019-04-04T09:14:07.944Z,72.30
2019-04-04T09:15:08.427Z,72.10
2019-04-04T09:16:05.476Z,72.10
2019-04-04T09:17:10.712Z,71.20
2019-04-04T09:18:07.536Z,71.20
2019-04-04T09:19:05.448Z,71.10
2019-04-04T09:20:05.549Z,71.10
2019-04-04T09:21:08.128Z,70.70
2019-04-04T09:22:11.699Z,70.80
2019-04-04T09:23:10.861Z,70.70
2019-04-04T09:24:10.876Z,70.10
2019-04-04T09:25:11.086Z,70.00
2019-04-04T09:26:07.450Z,70.00
2019-04-04T09:27:05.455Z,70.10
2019-04-04T09:28:05.241Z,70.20
2019-04-04T09:29:05.337Z,69.20
2019-04-04T09:30:05.380Z,68.60
2019-04-04T09:31:07.186Z,67.60
2019-04-04T09:32:07.763Z,66.20
2019-04-04T09:33:07.234Z,66.00
2019-04-04T09:34:05.204Z,65.00
2019-04-04T09:35:05.229Z,65.10
2019-04-04T09:36:05.424Z,65.20
2019-04-04T09:37:09.052Z,65.00
2019-04-04T09:38:05.114Z,65.00
2019-04-04T09:39:05.225Z,65.10
2019-04-04T09:40:07.804Z,65.00
2019-04-04T09:41:13.281Z,65.40
2019-04-04T09:42:05.309Z,65.40
2019-04-04T09:43:05.331Z,64.90
2019-04-04T09:44:07.450Z,64.80
2019-04-04T09:45:05.495Z,64.80
2019-04-04T09:46:10.667Z,64.70
2019-04-04T09:47:07.479Z,64.70
2019-04-04T09:48:07.187Z,64.00
2019-04-04T09:49:05.219Z,63.50
2019-04-04T09:50:05.461Z,62.60
2019-04-04T09:51:10.593Z,61.30
2019-04-04T09:52:05.462Z,61.20
2019-04-04T09:53:05.535Z,60.50
2019-04-04T09:54:07.865Z,61.40
2019-04-04T09:55:07.250Z,61.40
2019-04-04T09:56:07.749Z,60.50
2019-04-04T09:57:08.161Z,61.10
2019-04-04T09:58:05.248Z,61.10
2019-04-04T09:59:05.445Z,61.10
2019-04-04T10:00:05.481Z,60.00
2019-04-04T10:01:07.507Z,59.70
2019-04-04T10:02:05.539Z,59.40
2019-04-04T10:03:07.876Z,59.10
2019-04-04T10:04:07.307Z,59.10
2019-04-04T10:05:07.476Z,58.90
2019-04-04T10:06:05.478Z,58.60
2019-04-04T10:07:08.139Z,57.90
2019-04-04T10:08:05.044Z,57.90
2019-04-04T10:09:16.371Z,57.70
2019-04-04T10:10:07.735Z,57.50
2019-04-04T10:11:05.612Z,57.50
2019-04-04T10:12:05.649Z,57.40
2019-04-04T10:13:05.314Z,57.20
2019-04-04T10:14:05.534Z,57.20
2019-04-04T10:15:07.309Z,56.40
2019-04-04T10:16:07.944Z,56.80
2019-04-04T10:17:07.429Z,56.70
2019-04-04T10:18:10.503Z,56.60
2019-04-04T10:19:07.986Z,56.90
2019-04-04T10:20:11.034Z,57.10
2019-04-04T10:21:12.613Z,57.10
2019-04-04T10:22:13.399Z,55.70
2019-04-04T10:23:13.459Z,55.50
2019-04-04T10:24:08.047Z,55.20
2019-04-04T10:25:10.046Z,55.10
2019-04-04T10:26:10.000Z,54.80
2019-04-04T10:27:04.952Z,54.90
2019-04-04T10:28:04.974Z,55.10
2019-04-04T10:29:04.998Z,55.00
2019-04-04T10:30:07.759Z,55.20
2019-04-04T10:31:07.270Z,55.10
2019-04-04T10:32:05.259Z,54.70
2019-04-04T10:33:05.399Z,54.40
2019-04-04T10:34:08.136Z,54.50
2019-04-04T10:35:05.012Z,54.50
2019-04-04T10:36:07.769Z,54.70
2019-04-04T10:37:07.274Z,54.70
2019-04-04T10:38:05.376Z,55.10
2019-04-04T10:39:05.469Z,55.10
2019-04-04T10:40:07.235Z,55.90
2019-04-04T10:41:05.166Z,56.10
2019-04-04T10:42:05.161Z,56.10
2019-04-04T10:43:05.209Z,55.90
2019-04-04T10:44:07.326Z,55.70
2019-04-04T10:45:05.353Z,55.40
2019-04-04T10:46:05.389Z,55.30
2019-04-04T10:47:05.479Z,55.10
2019-04-04T10:48:08.109Z,54.90
2019-04-04T10:49:08.789Z,54.90
2019-04-04T10:50:07.237Z,54.90
2019-04-04T10:51:10.344Z,54.80
2019-04-04T10:52:05.235Z,54.80
2019-04-04T10:53:05.259Z,54.40
2019-04-04T10:54:05.246Z,54.00
2019-04-04T10:55:05.373Z,54.20
2019-04-04T10:56:05.544Z,54.50
2019-04-04T10:57:07.294Z,54.50
2019-04-04T10:58:05.459Z,54.10
2019-04-04T10:59:05.713Z,54.10
2019-04-04T11:00:05.164Z,53.70
2019-04-04T11:01:05.201Z,54.20
2019-04-04T11:02:07.805Z,54.40
2019-04-04T11:03:05.676Z,54.20
2019-04-04T11:04:05.226Z,54.30
2019-04-04T11:05:05.340Z,54.50
2019-04-04T11:06:08.083Z,53.20
2019-04-04T11:07:07.799Z,52.70
2019-04-04T11:08:05.669Z,52.70
2019-04-04T11:09:05.474Z,52.40
2019-04-04T11:10:05.540Z,52.30
2019-04-04T11:11:05.693Z,50.80
2019-04-04T11:12:05.187Z,51.10
2019-04-04T11:13:05.327Z,51.60
2019-04-04T11:14:05.391Z,51.80
2019-04-04T11:15:05.391Z,51.90
2019-04-04T11:16:07.977Z,51.10
2019-04-04T11:17:08.500Z,50.60
2019-04-04T11:18:05.486Z,50.60
2019-04-04T11:19:05.571Z,50.20
2019-04-04T11:20:08.209Z,50.40
2019-04-04T11:21:07.797Z,50.40
2019-04-04T11:22:13.374Z,50.40
2019-04-04T11:23:05.261Z,50.40
2019-04-04T11:24:05.440Z,50.10
2019-04-04T11:25:08.097Z,49.90
2019-04-04T11:26:04.973Z,50.00
2019-04-04T11:27:07.800Z,49.40
2019-04-04T11:28:07.324Z,49.30
2019-04-04T11:29:10.460Z,49.20
2019-04-04T11:30:08.052Z,49.40
2019-04-04T11:31:07.832Z,49.50
2019-04-04T11:32:05.750Z,49.50
2019-04-04T11:33:05.285Z,49.40
2019-04-04T11:34:05.423Z,49.50
2019-04-04T11:35:08.149Z,49.30
2019-04-04T11:36:05.233Z,49.30
2019-04-04T11:37:05.397Z,49.10
2019-04-04T11:38:05.584Z,49.00
2019-04-04T11:39:07.302Z,48.90
2019-04-04T11:40:07.914Z,49.50
2019-04-04T11:41:07.378Z,49.50
2019-04-04T11:42:05.375Z,49.10
2019-04-04T11:43:05.428Z,48.60
2019-04-04T11:44:05.704Z,47.90
2019-04-04T11:45:08.017Z,48.10
2019-04-04T11:46:07.384Z,48.10
2019-04-04T11:47:05.345Z,48.40
2019-04-04T11:48:05.459Z,48.90
2019-04-04T11:49:05.557Z,48.40
2019-04-04T11:50:10.871Z,48.40
2019-04-04T11:51:10.928Z,48.40
2019-04-04T11:52:13.491Z,47.80
2019-04-04T11:53:07.916Z,47.80
2019-04-04T11:54:07.376Z,47.80
2019-04-04T11:55:10.384Z,48.10
2019-04-04T11:56:05.418Z,48.10
2019-04-04T11:57:08.085Z,48.80
2019-04-04T11:58:04.955Z,48.80
2019-04-04T11:59:08.691Z,48.60
2019-04-04T12:00:08.119Z,48.60
2019-04-04T12:01:05.037Z,48.60
2019-04-04T12:02:05.084Z,48.20
2019-04-04T12:03:05.122Z,47.70
2019-04-04T12:04:05.089Z,47.80
2019-04-04T12:05:07.839Z,47.80
2019-04-04T12:06:05.791Z,48.00
2019-04-04T12:07:05.212Z,47.80
2019-04-04T12:08:07.825Z,47.70
2019-04-04T12:09:10.870Z,47.10
2019-04-04T12:10:08.476Z,47.10
2019-04-04T12:11:05.532Z,47.10
2019-04-04T12:12:05.601Z,46.90
2019-04-04T12:13:08.210Z,47.10
2019-04-04T12:14:07.874Z,47.60
2019-04-04T12:15:05.781Z,47.30
2019-04-04T12:16:05.272Z,47.40
2019-04-04T12:17:07.980Z,48.00
2019-04-04T12:18:04.925Z,48.00
2019-04-04T12:19:07.971Z,48.60
2019-04-04T12:20:07.354Z,48.60
2019-04-04T12:21:05.394Z,48.40
2019-04-04T12:22:08.052Z,48.40
2019-04-04T12:23:07.971Z,48.90
2019-04-04T12:24:08.397Z,48.60
2019-04-04T12:25:05.327Z,48.60
2019-04-04T12:26:05.365Z,48.60
2019-04-04T12:27:05.403Z,48.60
2019-04-04T12:28:07.963Z,48.70
2019-04-04T12:29:07.407Z,48.70
2019-04-04T12:30:05.428Z,48.30
2019-04-04T12:31:05.614Z,47.80
2019-04-04T12:32:05.754Z,47.60
2019-04-04T12:33:08.419Z,47.90
2019-04-04T12:34:07.961Z,47.90
2019-04-04T12:35:07.571Z,47.90
2019-04-04T12:36:08.201Z,47.70
2019-04-04T12:37:05.092Z,47.70
2019-04-04T12:38:05.141Z,47.70
2019-04-04T12:39:05.224Z,47.60
2019-04-04T12:40:21.234Z,47.60
2019-04-04T12:41:07.995Z,47.60
2019-04-04T12:42:04.974Z,47.60
2019-04-04T12:43:05.218Z,48.00
2019-04-04T12:44:08.050Z,47.00
2019-04-04T12:45:07.414Z,47.00
2019-04-04T12:46:05.459Z,46.80
2019-04-04T12:47:05.690Z,47.10
2019-04-04T12:48:09.123Z,47.00
2019-04-04T12:49:05.180Z,47.30
2019-04-04T12:50:05.188Z,47.40
2019-04-04T12:51:05.351Z,47.40
2019-04-04T12:52:07.994Z,47.70
2019-04-04T12:53:07.366Z,47.70